sensor_id;sensor_type;location;lat;lon;timestamp;P1;durP1;ratioP1;P2;durP2;ratioP2
17818;SDS011;9034;50.284;19.310;2022-10-22T00:00:48;39.25;;;24.17;;
17818;SDS011;9034;50.284;19.310;2022-10-22T00:01:51;33.95;;;22.75;;
17818;SDS011;9034;50.284;19.310;2022-10-22T00:02:55;35.22;;;24.17;;
17818;SDS011;9034;50.284;19.310;2022-10-22T00:03:59;39.20;;;25.08;;
17818;SDS011;9034;50.284;19.310;2022-10-22T00:05:03;41.97;;;26.45;;
17818;SDS011;9034;50.284;19.310;2022-10-22T00:06:08;38.60;;;24.55;;
17818;SDS011;9034;50.284;19.310;2022-10-22T00:07:13;33.97;;;23.88;;
17818;SDS011;9034;50.284;19.310;2022-10-22T00:08:16;34.08;;;23.35;;
17818;SDS011;9034;50.284;19.310;2022-10-22T00:09:19;37.33;;;23.75;;
17818;SDS011;9034;50.284;19.310;2022-10-22T00:10:22;32.33;;;23.15;;
17818;SDS011;9034;50.284;19.310;2022-10-22T00:11:26;27.90;;;20.05;;
17818;SDS011;9034;50.284;19.310;2022-10-22T00:12:29;33.78;;;23.33;;
17818;SDS011;9034;50.284;19.310;2022-10-22T00:13:33;37.70;;;25.13;;
17818;SDS011;9034;50.284;19.310;2022-10-22T00:14:35;36.85;;;24.50;;
17818;SDS011;9034;50.284;19.310;2022-10-22T00:15:39;40.35;;;26.83;;
17818;SDS011;9034;50.284;19.310;2022-10-22T00:16:42;39.72;;;25.73;;
17818;SDS011;9034;50.284;19.310;2022-10-22T00:17:46;37.25;;;24.23;;
17818;SDS011;9034;50.284;19.310;2022-10-22T00:18:50;35.65;;;23.27;;
17818;SDS011;9034;50.284;19.310;2022-10-22T00:19:54;35.42;;;24.85;;
17818;SDS011;9034;50.284;19.310;2022-10-22T00:20:57;46.33;;;26.35;;
17818;SDS011;9034;50.284;19.310;2022-10-22T00:22:02;38.75;;;24.33;;
17818;SDS011;9034;50.284;19.310;2022-10-22T00:23:08;37.92;;;23.92;;
17818;SDS011;9034;50.284;19.310;2022-10-22T00:24:12;38.50;;;25.10;;
17818;SDS011;9034;50.284;19.310;2022-10-22T00:25:17;41.15;;;23.67;;
17818;SDS011;9034;50.284;19.310;2022-10-22T00:26:21;34.17;;;23.33;;
17818;SDS011;9034;50.284;19.310;2022-10-22T00:27:24;36.60;;;23.17;;
17818;SDS011;9034;50.284;19.310;2022-10-22T00:28:28;38.20;;;22.73;;
17818;SDS011;9034;50.284;19.310;2022-10-22T00:29:31;31.40;;;22.23;;
17818;SDS011;9034;50.284;19.310;2022-10-22T00:30:35;36.33;;;22.70;;
17818;SDS011;9034;50.284;19.310;2022-10-22T00:31:38;36.58;;;23.35;;
17818;SDS011;9034;50.284;19.310;2022-10-22T00:32:42;36.80;;;24.73;;
17818;SDS011;9034;50.284;19.310;2022-10-22T00:33:45;37.97;;;24.80;;
17818;SDS011;9034;50.284;19.310;2022-10-22T00:34:52;33.50;;;22.30;;
17818;SDS011;9034;50.284;19.310;2022-10-22T00:35:55;32.50;;;21.35;;
17818;SDS011;9034;50.284;19.310;2022-10-22T00:36:59;33.03;;;21.73;;
17818;SDS011;9034;50.284;19.310;2022-10-22T00:38:04;33.78;;;23.23;;
17818;SDS011;9034;50.284;19.310;2022-10-22T00:39:08;36.65;;;23.35;;
17818;SDS011;9034;50.284;19.310;2022-10-22T00:40:12;31.50;;;22.95;;
17818;SDS011;9034;50.284;19.310;2022-10-22T00:41:15;32.75;;;22.65;;
17818;SDS011;9034;50.284;19.310;2022-10-22T00:42:19;35.22;;;24.10;;
17818;SDS011;9034;50.284;19.310;2022-10-22T00:43:23;34.15;;;23.45;;
17818;SDS011;9034;50.284;19.310;2022-10-22T00:46:07;30.60;;;21.08;;
17818;SDS011;9034;50.284;19.310;2022-10-22T00:47:11;34.72;;;22.05;;
17818;SDS011;9034;50.284;19.310;2022-10-22T00:48:14;39.75;;;22.73;;
17818;SDS011;9034;50.284;19.310;2022-10-22T00:49:21;34.05;;;21.67;;
17818;SDS011;9034;50.284;19.310;2022-10-22T00:50:26;31.30;;;20.65;;
17818;SDS011;9034;50.284;19.310;2022-10-22T00:51:33;29.88;;;19.52;;
17818;SDS011;9034;50.284;19.310;2022-10-22T00:52:37;28.98;;;20.30;;
17818;SDS011;9034;50.284;19.310;2022-10-22T00:53:44;25.85;;;19.48;;
17818;SDS011;9034;50.284;19.310;2022-10-22T00:54:49;32.65;;;19.88;;
17818;SDS011;9034;50.284;19.310;2022-10-22T00:55:53;31.25;;;20.25;;
17818;SDS011;9034;50.284;19.310;2022-10-22T00:56:56;31.25;;;19.70;;
17818;SDS011;9034;50.284;19.310;2022-10-22T00:58:00;29.65;;;17.95;;
17818;SDS011;9034;50.284;19.310;2022-10-22T00:59:04;35.97;;;20.23;;
17818;SDS011;9034;50.284;19.310;2022-10-22T01:00:13;28.48;;;19.08;;
17818;SDS011;9034;50.284;19.310;2022-10-22T01:01:17;35.38;;;19.73;;
17818;SDS011;9034;50.284;19.310;2022-10-22T01:02:22;37.92;;;20.98;;
17818;SDS011;9034;50.284;19.310;2022-10-22T01:03:25;29.63;;;20.65;;
17818;SDS011;9034;50.284;19.310;2022-10-22T01:04:29;34.10;;;21.27;;
17818;SDS011;9034;50.284;19.310;2022-10-22T01:05:33;29.20;;;19.90;;
17818;SDS011;9034;50.284;19.310;2022-10-22T01:06:43;32.17;;;20.50;;
17818;SDS011;9034;50.284;19.310;2022-10-22T01:07:47;29.50;;;20.63;;
17818;SDS011;9034;50.284;19.310;2022-10-22T01:08:57;37.30;;;21.10;;
17818;SDS011;9034;50.284;19.310;2022-10-22T01:10:07;32.03;;;19.67;;
17818;SDS011;9034;50.284;19.310;2022-10-22T01:11:17;31.67;;;20.13;;
17818;SDS011;9034;50.284;19.310;2022-10-22T01:12:26;34.05;;;20.42;;
17818;SDS011;9034;50.284;19.310;2022-10-22T01:13:38;32.03;;;20.00;;
17818;SDS011;9034;50.284;19.310;2022-10-22T01:14:53;30.50;;;20.73;;
17818;SDS011;9034;50.284;19.310;2022-10-22T01:16:08;38.50;;;22.67;;
17818;SDS011;9034;50.284;19.310;2022-10-22T01:17:13;38.55;;;22.23;;
17818;SDS011;9034;50.284;19.310;2022-10-22T01:18:22;37.72;;;20.63;;
17818;SDS011;9034;50.284;19.310;2022-10-22T01:19:41;34.65;;;20.98;;
17818;SDS011;9034;50.284;19.310;2022-10-22T01:20:55;36.17;;;19.83;;
17818;SDS011;9034;50.284;19.310;2022-10-22T01:22:04;34.97;;;18.33;;
17818;SDS011;9034;50.284;19.310;2022-10-22T01:23:15;39.10;;;21.70;;
17818;SDS011;9034;50.284;19.310;2022-10-22T01:24:51;34.78;;;19.33;;
17818;SDS011;9034;50.284;19.310;2022-10-22T01:26:02;28.98;;;17.88;;
17818;SDS011;9034;50.284;19.310;2022-10-22T01:27:09;38.80;;;20.08;;
17818;SDS011;9034;50.284;19.310;2022-10-22T01:28:20;43.03;;;20.13;;
17818;SDS011;9034;50.284;19.310;2022-10-22T01:29:29;39.58;;;19.45;;
17818;SDS011;9034;50.284;19.310;2022-10-22T01:30:36;30.17;;;17.83;;
17818;SDS011;9034;50.284;19.310;2022-10-22T01:31:41;28.40;;;17.05;;
17818;SDS011;9034;50.284;19.310;2022-10-22T01:32:48;26.88;;;16.52;;
17818;SDS011;9034;50.284;19.310;2022-10-22T01:33:53;30.88;;;17.13;;
17818;SDS011;9034;50.284;19.310;2022-10-22T01:34:59;29.83;;;17.73;;
17818;SDS011;9034;50.284;19.310;2022-10-22T01:36:05;26.58;;;17.23;;
17818;SDS011;9034;50.284;19.310;2022-10-22T01:37:09;30.08;;;17.65;;
17818;SDS011;9034;50.284;19.310;2022-10-22T01:38:14;35.72;;;18.48;;
17818;SDS011;9034;50.284;19.310;2022-10-22T01:39:19;38.00;;;19.10;;
17818;SDS011;9034;50.284;19.310;2022-10-22T01:40:24;26.65;;;17.17;;
17818;SDS011;9034;50.284;19.310;2022-10-22T01:41:28;23.23;;;15.73;;
17818;SDS011;9034;50.284;19.310;2022-10-22T01:42:32;26.75;;;17.90;;
17818;SDS011;9034;50.284;19.310;2022-10-22T01:43:36;27.10;;;17.88;;
17818;SDS011;9034;50.284;19.310;2022-10-22T01:44:40;39.30;;;23.00;;
17818;SDS011;9034;50.284;19.310;2022-10-22T01:45:45;36.05;;;20.63;;
17818;SDS011;9034;50.284;19.310;2022-10-22T01:46:49;35.03;;;18.58;;
17818;SDS011;9034;50.284;19.310;2022-10-22T01:47:57;34.35;;;19.42;;
17818;SDS011;9034;50.284;19.310;2022-10-22T01:49:10;38.05;;;21.02;;
17818;SDS011;9034;50.284;19.310;2022-10-22T01:50:23;34.15;;;19.45;;
17818;SDS011;9034;50.284;19.310;2022-10-22T01:51:38;41.78;;;18.48;;
17818;SDS011;9034;50.284;19.310;2022-10-22T01:52:51;32.67;;;18.35;;
17818;SDS011;9034;50.284;19.310;2022-10-22T01:54:15;36.28;;;18.20;;
17818;SDS011;9034;50.284;19.310;2022-10-22T01:55:26;32.88;;;18.75;;
17818;SDS011;9034;50.284;19.310;2022-10-22T01:56:35;35.00;;;16.83;;
17818;SDS011;9034;50.284;19.310;2022-10-22T01:57:47;31.33;;;17.08;;
17818;SDS011;9034;50.284;19.310;2022-10-22T01:58:54;26.88;;;16.67;;
17818;SDS011;9034;50.284;19.310;2022-10-22T02:00:08;34.08;;;18.08;;
17818;SDS011;9034;50.284;19.310;2022-10-22T02:01:14;29.85;;;18.40;;
17818;SDS011;9034;50.284;19.310;2022-10-22T02:02:25;27.98;;;18.67;;
17818;SDS011;9034;50.284;19.310;2022-10-22T02:03:33;27.88;;;17.73;;
17818;SDS011;9034;50.284;19.310;2022-10-22T02:04:40;26.65;;;17.67;;
17818;SDS011;9034;50.284;19.310;2022-10-22T02:05:45;30.40;;;19.23;;
17818;SDS011;9034;50.284;19.310;2022-10-22T02:06:51;28.27;;;17.30;;
17818;SDS011;9034;50.284;19.310;2022-10-22T02:07:58;30.45;;;17.17;;
17818;SDS011;9034;50.284;19.310;2022-10-22T02:09:05;30.58;;;18.23;;
17818;SDS011;9034;50.284;19.310;2022-10-22T02:10:09;29.77;;;18.13;;
17818;SDS011;9034;50.284;19.310;2022-10-22T02:11:14;29.52;;;17.80;;
17818;SDS011;9034;50.284;19.310;2022-10-22T02:12:18;35.63;;;21.30;;
17818;SDS011;9034;50.284;19.310;2022-10-22T02:13:24;30.35;;;18.85;;
17818;SDS011;9034;50.284;19.310;2022-10-22T02:14:29;74.78;;;23.15;;
17818;SDS011;9034;50.284;19.310;2022-10-22T02:15:36;42.78;;;21.90;;
17818;SDS011;9034;50.284;19.310;2022-10-22T02:16:41;29.88;;;18.85;;
17818;SDS011;9034;50.284;19.310;2022-10-22T02:17:46;34.00;;;20.23;;
17818;SDS011;9034;50.284;19.310;2022-10-22T02:18:50;35.88;;;21.17;;
17818;SDS011;9034;50.284;19.310;2022-10-22T02:19:57;33.17;;;19.90;;
17818;SDS011;9034;50.284;19.310;2022-10-22T02:21:03;39.00;;;19.85;;
17818;SDS011;9034;50.284;19.310;2022-10-22T02:22:07;37.42;;;19.83;;
17818;SDS011;9034;50.284;19.310;2022-10-22T02:23:11;50.50;;;22.05;;
17818;SDS011;9034;50.284;19.310;2022-10-22T02:24:15;46.22;;;20.30;;
17818;SDS011;9034;50.284;19.310;2022-10-22T02:25:19;35.22;;;18.55;;
17818;SDS011;9034;50.284;19.310;2022-10-22T02:26:28;27.60;;;16.92;;
17818;SDS011;9034;50.284;19.310;2022-10-22T02:27:38;29.40;;;16.55;;
17818;SDS011;9034;50.284;19.310;2022-10-22T02:28:48;29.58;;;16.98;;
17818;SDS011;9034;50.284;19.310;2022-10-22T02:30:00;29.02;;;16.92;;
17818;SDS011;9034;50.284;19.310;2022-10-22T02:31:09;25.77;;;16.58;;
17818;SDS011;9034;50.284;19.310;2022-10-22T02:32:15;28.95;;;16.50;;
17818;SDS011;9034;50.284;19.310;2022-10-22T02:33:21;29.92;;;16.58;;
17818;SDS011;9034;50.284;19.310;2022-10-22T02:34:28;26.38;;;14.95;;
17818;SDS011;9034;50.284;19.310;2022-10-22T02:35:34;25.50;;;15.18;;
17818;SDS011;9034;50.284;19.310;2022-10-22T02:36:37;29.25;;;16.17;;
17818;SDS011;9034;50.284;19.310;2022-10-22T02:37:41;40.83;;;17.70;;
17818;SDS011;9034;50.284;19.310;2022-10-22T02:38:44;24.77;;;14.40;;
17818;SDS011;9034;50.284;19.310;2022-10-22T02:39:50;23.35;;;16.45;;
17818;SDS011;9034;50.284;19.310;2022-10-22T02:40:53;27.85;;;17.67;;
17818;SDS011;9034;50.284;19.310;2022-10-22T02:41:57;28.17;;;17.88;;
17818;SDS011;9034;50.284;19.310;2022-10-22T02:43:03;28.90;;;16.38;;
17818;SDS011;9034;50.284;19.310;2022-10-22T02:44:07;90.13;;;26.33;;
17818;SDS011;9034;50.284;19.310;2022-10-22T02:45:11;36.28;;;15.77;;
17818;SDS011;9034;50.284;19.310;2022-10-22T02:46:16;28.65;;;17.35;;
17818;SDS011;9034;50.284;19.310;2022-10-22T02:47:19;33.17;;;18.38;;
17818;SDS011;9034;50.284;19.310;2022-10-22T02:48:23;30.40;;;17.80;;
17818;SDS011;9034;50.284;19.310;2022-10-22T02:49:25;32.80;;;16.67;;
17818;SDS011;9034;50.284;19.310;2022-10-22T02:50:30;31.45;;;17.63;;
17818;SDS011;9034;50.284;19.310;2022-10-22T02:51:32;31.15;;;17.77;;
17818;SDS011;9034;50.284;19.310;2022-10-22T02:52:36;27.77;;;17.80;;
17818;SDS011;9034;50.284;19.310;2022-10-22T02:53:40;25.08;;;15.40;;
17818;SDS011;9034;50.284;19.310;2022-10-22T02:54:44;27.90;;;18.20;;
17818;SDS011;9034;50.284;19.310;2022-10-22T02:55:46;31.30;;;17.58;;
17818;SDS011;9034;50.284;19.310;2022-10-22T02:56:50;23.55;;;14.18;;
17818;SDS011;9034;50.284;19.310;2022-10-22T02:57:54;26.65;;;16.10;;
17818;SDS011;9034;50.284;19.310;2022-10-22T02:58:57;22.05;;;13.20;;
17818;SDS011;9034;50.284;19.310;2022-10-22T03:00:00;30.50;;;18.00;;
17818;SDS011;9034;50.284;19.310;2022-10-22T03:01:04;22.42;;;14.48;;
17818;SDS011;9034;50.284;19.310;2022-10-22T03:02:08;33.53;;;19.70;;
17818;SDS011;9034;50.284;19.310;2022-10-22T03:03:12;25.48;;;15.10;;
17818;SDS011;9034;50.284;19.310;2022-10-22T03:04:15;34.63;;;18.92;;
17818;SDS011;9034;50.284;19.310;2022-10-22T03:05:21;24.27;;;14.20;;
17818;SDS011;9034;50.284;19.310;2022-10-22T03:06:25;30.02;;;17.58;;
17818;SDS011;9034;50.284;19.310;2022-10-22T03:07:29;28.55;;;15.35;;
17818;SDS011;9034;50.284;19.310;2022-10-22T03:08:32;34.05;;;17.60;;
17818;SDS011;9034;50.284;19.310;2022-10-22T03:09:37;29.65;;;13.73;;
17818;SDS011;9034;50.284;19.310;2022-10-22T03:10:40;36.63;;;18.20;;
17818;SDS011;9034;50.284;19.310;2022-10-22T03:11:44;70.75;;;23.35;;
17818;SDS011;9034;50.284;19.310;2022-10-22T03:12:47;37.05;;;19.90;;
17818;SDS011;9034;50.284;19.310;2022-10-22T03:13:51;30.25;;;17.60;;
17818;SDS011;9034;50.284;19.310;2022-10-22T03:14:53;32.03;;;19.52;;
17818;SDS011;9034;50.284;19.310;2022-10-22T03:15:57;26.60;;;15.73;;
17818;SDS011;9034;50.284;19.310;2022-10-22T03:17:00;26.40;;;16.85;;
17818;SDS011;9034;50.284;19.310;2022-10-22T03:18:09;26.55;;;15.55;;
17818;SDS011;9034;50.284;19.310;2022-10-22T03:19:15;26.55;;;15.65;;
17818;SDS011;9034;50.284;19.310;2022-10-22T03:20:19;25.50;;;15.57;;
17818;SDS011;9034;50.284;19.310;2022-10-22T03:21:24;31.40;;;18.27;;
17818;SDS011;9034;50.284;19.310;2022-10-22T03:22:33;23.08;;;13.68;;
17818;SDS011;9034;50.284;19.310;2022-10-22T03:23:39;23.98;;;12.98;;
17818;SDS011;9034;50.284;19.310;2022-10-22T03:24:45;22.05;;;14.38;;
17818;SDS011;9034;50.284;19.310;2022-10-22T03:25:49;25.40;;;15.05;;
17818;SDS011;9034;50.284;19.310;2022-10-22T03:26:53;21.38;;;13.18;;
17818;SDS011;9034;50.284;19.310;2022-10-22T03:27:56;25.13;;;16.25;;
17818;SDS011;9034;50.284;19.310;2022-10-22T03:29:04;21.38;;;13.77;;
17818;SDS011;9034;50.284;19.310;2022-10-22T03:30:07;25.33;;;14.73;;
17818;SDS011;9034;50.284;19.310;2022-10-22T03:31:11;24.50;;;16.85;;
17818;SDS011;9034;50.284;19.310;2022-10-22T03:32:14;23.10;;;14.32;;
17818;SDS011;9034;50.284;19.310;2022-10-22T03:33:19;23.55;;;15.25;;
17818;SDS011;9034;50.284;19.310;2022-10-22T03:34:22;23.45;;;16.08;;
17818;SDS011;9034;50.284;19.310;2022-10-22T03:35:26;28.77;;;15.43;;
17818;SDS011;9034;50.284;19.310;2022-10-22T03:36:30;22.63;;;13.73;;
17818;SDS011;9034;50.284;19.310;2022-10-22T03:37:34;21.33;;;13.25;;
17818;SDS011;9034;50.284;19.310;2022-10-22T03:38:38;26.77;;;16.38;;
17818;SDS011;9034;50.284;19.310;2022-10-22T03:39:42;32.95;;;18.77;;
17818;SDS011;9034;50.284;19.310;2022-10-22T03:40:45;32.15;;;17.75;;
17818;SDS011;9034;50.284;19.310;2022-10-22T03:41:49;29.00;;;17.90;;
17818;SDS011;9034;50.284;19.310;2022-10-22T03:42:52;24.08;;;14.18;;
17818;SDS011;9034;50.284;19.310;2022-10-22T03:43:56;23.05;;;14.60;;
17818;SDS011;9034;50.284;19.310;2022-10-22T03:44:59;29.20;;;15.15;;
17818;SDS011;9034;50.284;19.310;2022-10-22T03:46:03;31.67;;;19.20;;
17818;SDS011;9034;50.284;19.310;2022-10-22T03:47:05;30.75;;;19.58;;
17818;SDS011;9034;50.284;19.310;2022-10-22T03:48:09;34.05;;;19.02;;
17818;SDS011;9034;50.284;19.310;2022-10-22T03:49:13;33.83;;;18.65;;
17818;SDS011;9034;50.284;19.310;2022-10-22T03:50:17;23.77;;;16.85;;
17818;SDS011;9034;50.284;19.310;2022-10-22T03:51:20;30.15;;;17.17;;
17818;SDS011;9034;50.284;19.310;2022-10-22T03:52:24;25.38;;;15.23;;
17818;SDS011;9034;50.284;19.310;2022-10-22T03:53:27;34.78;;;20.35;;
17818;SDS011;9034;50.284;19.310;2022-10-22T03:54:30;27.77;;;17.52;;
17818;SDS011;9034;50.284;19.310;2022-10-22T03:55:33;30.90;;;20.25;;
17818;SDS011;9034;50.284;19.310;2022-10-22T03:56:39;33.67;;;20.15;;
17818;SDS011;9034;50.284;19.310;2022-10-22T03:57:44;35.20;;;18.50;;
17818;SDS011;9034;50.284;19.310;2022-10-22T03:58:46;36.03;;;19.08;;
17818;SDS011;9034;50.284;19.310;2022-10-22T03:59:50;31.98;;;17.63;;
17818;SDS011;9034;50.284;19.310;2022-10-22T04:00:53;30.65;;;18.42;;
17818;SDS011;9034;50.284;19.310;2022-10-22T04:01:57;25.25;;;14.68;;
17818;SDS011;9034;50.284;19.310;2022-10-22T04:03:00;28.33;;;18.70;;
17818;SDS011;9034;50.284;19.310;2022-10-22T04:04:04;36.70;;;18.40;;
17818;SDS011;9034;50.284;19.310;2022-10-22T04:05:09;41.63;;;19.38;;
17818;SDS011;9034;50.284;19.310;2022-10-22T04:06:18;83.90;;;21.40;;
17818;SDS011;9034;50.284;19.310;2022-10-22T04:07:22;77.57;;;20.73;;
17818;SDS011;9034;50.284;19.310;2022-10-22T04:08:26;29.63;;;18.48;;
17818;SDS011;9034;50.284;19.310;2022-10-22T04:09:29;54.03;;;22.80;;
17818;SDS011;9034;50.284;19.310;2022-10-22T04:10:33;32.30;;;19.27;;
17818;SDS011;9034;50.284;19.310;2022-10-22T04:11:37;26.98;;;16.15;;
17818;SDS011;9034;50.284;19.310;2022-10-22T04:12:41;28.70;;;15.98;;
17818;SDS011;9034;50.284;19.310;2022-10-22T04:13:44;27.85;;;18.98;;
17818;SDS011;9034;50.284;19.310;2022-10-22T04:14:48;28.30;;;16.35;;
17818;SDS011;9034;50.284;19.310;2022-10-22T04:15:51;25.77;;;15.38;;
17818;SDS011;9034;50.284;19.310;2022-10-22T04:16:55;28.02;;;18.95;;
17818;SDS011;9034;50.284;19.310;2022-10-22T04:17:58;27.83;;;16.70;;
17818;SDS011;9034;50.284;19.310;2022-10-22T04:19:02;31.35;;;19.02;;
17818;SDS011;9034;50.284;19.310;2022-10-22T04:20:04;26.15;;;16.20;;
17818;SDS011;9034;50.284;19.310;2022-10-22T04:21:12;30.48;;;18.52;;
17818;SDS011;9034;50.284;19.310;2022-10-22T04:22:15;31.58;;;16.17;;
17818;SDS011;9034;50.284;19.310;2022-10-22T04:23:19;27.73;;;18.55;;
17818;SDS011;9034;50.284;19.310;2022-10-22T04:24:28;23.67;;;15.07;;
17818;SDS011;9034;50.284;19.310;2022-10-22T04:25:32;30.90;;;15.82;;
17818;SDS011;9034;50.284;19.310;2022-10-22T04:26:35;25.02;;;13.98;;
17818;SDS011;9034;50.284;19.310;2022-10-22T04:27:39;33.63;;;19.70;;
17818;SDS011;9034;50.284;19.310;2022-10-22T04:28:43;36.72;;;17.63;;
17818;SDS011;9034;50.284;19.310;2022-10-22T04:29:47;37.55;;;16.35;;
17818;SDS011;9034;50.284;19.310;2022-10-22T04:30:50;68.00;;;23.27;;
17818;SDS011;9034;50.284;19.310;2022-10-22T04:31:55;25.50;;;15.65;;
17818;SDS011;9034;50.284;19.310;2022-10-22T04:32:57;26.40;;;17.13;;
17818;SDS011;9034;50.284;19.310;2022-10-22T04:34:01;23.55;;;15.52;;
17818;SDS011;9034;50.284;19.310;2022-10-22T04:35:04;46.00;;;17.77;;
17818;SDS011;9034;50.284;19.310;2022-10-22T04:36:11;20.35;;;13.13;;
17818;SDS011;9034;50.284;19.310;2022-10-22T04:37:15;21.92;;;13.40;;
17818;SDS011;9034;50.284;19.310;2022-10-22T04:38:19;26.92;;;17.05;;
17818;SDS011;9034;50.284;19.310;2022-10-22T04:39:22;23.95;;;16.63;;
17818;SDS011;9034;50.284;19.310;2022-10-22T04:40:26;31.08;;;17.80;;
17818;SDS011;9034;50.284;19.310;2022-10-22T04:41:29;25.45;;;17.13;;
17818;SDS011;9034;50.284;19.310;2022-10-22T04:42:35;20.85;;;15.95;;
17818;SDS011;9034;50.284;19.310;2022-10-22T04:43:38;30.55;;;18.05;;
17818;SDS011;9034;50.284;19.310;2022-10-22T04:44:42;28.67;;;18.50;;
17818;SDS011;9034;50.284;19.310;2022-10-22T04:45:47;23.33;;;15.65;;
17818;SDS011;9034;50.284;19.310;2022-10-22T04:46:50;29.63;;;18.67;;
17818;SDS011;9034;50.284;19.310;2022-10-22T04:47:54;27.65;;;17.88;;
17818;SDS011;9034;50.284;19.310;2022-10-22T04:48:56;28.00;;;18.23;;
17818;SDS011;9034;50.284;19.310;2022-10-22T04:50:03;27.60;;;17.58;;
17818;SDS011;9034;50.284;19.310;2022-10-22T04:51:12;30.42;;;18.88;;
17818;SDS011;9034;50.284;19.310;2022-10-22T04:52:17;28.33;;;16.67;;
17818;SDS011;9034;50.284;19.310;2022-10-22T04:53:21;32.25;;;21.00;;
17818;SDS011;9034;50.284;19.310;2022-10-22T04:54:23;28.90;;;20.70;;
17818;SDS011;9034;50.284;19.310;2022-10-22T04:55:33;32.60;;;21.58;;
17818;SDS011;9034;50.284;19.310;2022-10-22T04:56:37;30.52;;;22.27;;
17818;SDS011;9034;50.284;19.310;2022-10-22T04:57:41;37.55;;;22.08;;
17818;SDS011;9034;50.284;19.310;2022-10-22T04:58:46;32.65;;;21.88;;
17818;SDS011;9034;50.284;19.310;2022-10-22T04:59:51;37.45;;;23.67;;
17818;SDS011;9034;50.284;19.310;2022-10-22T05:00:55;35.15;;;23.08;;
17818;SDS011;9034;50.284;19.310;2022-10-22T05:02:00;30.02;;;22.30;;
17818;SDS011;9034;50.284;19.310;2022-10-22T05:03:04;36.47;;;23.67;;
17818;SDS011;9034;50.284;19.310;2022-10-22T05:04:09;33.80;;;22.88;;
17818;SDS011;9034;50.284;19.310;2022-10-22T05:05:15;34.78;;;22.35;;
17818;SDS011;9034;50.284;19.310;2022-10-22T05:06:20;33.35;;;22.02;;
17818;SDS011;9034;50.284;19.310;2022-10-22T05:07:27;35.80;;;22.08;;
17818;SDS011;9034;50.284;19.310;2022-10-22T05:08:30;35.83;;;20.85;;
17818;SDS011;9034;50.284;19.310;2022-10-22T05:09:34;38.90;;;22.77;;
17818;SDS011;9034;50.284;19.310;2022-10-22T05:10:37;54.28;;;26.27;;
17818;SDS011;9034;50.284;19.310;2022-10-22T05:11:41;38.15;;;22.67;;
17818;SDS011;9034;50.284;19.310;2022-10-22T05:12:47;54.47;;;26.23;;
17818;SDS011;9034;50.284;19.310;2022-10-22T05:13:51;39.55;;;23.33;;
17818;SDS011;9034;50.284;19.310;2022-10-22T05:14:54;35.40;;;21.95;;
17818;SDS011;9034;50.284;19.310;2022-10-22T05:15:59;39.35;;;25.17;;
17818;SDS011;9034;50.284;19.310;2022-10-22T05:17:02;45.08;;;25.63;;
17818;SDS011;9034;50.284;19.310;2022-10-22T05:18:06;42.22;;;24.25;;
17818;SDS011;9034;50.284;19.310;2022-10-22T05:19:11;40.25;;;25.63;;
17818;SDS011;9034;50.284;19.310;2022-10-22T05:20:17;43.03;;;24.50;;
17818;SDS011;9034;50.284;19.310;2022-10-22T05:21:21;35.78;;;24.02;;
17818;SDS011;9034;50.284;19.310;2022-10-22T05:22:25;41.10;;;26.77;;
17818;SDS011;9034;50.284;19.310;2022-10-22T05:23:28;70.20;;;40.03;;
17818;SDS011;9034;50.284;19.310;2022-10-22T05:24:32;55.42;;;32.00;;
17818;SDS011;9034;50.284;19.310;2022-10-22T05:25:38;50.78;;;28.75;;
17818;SDS011;9034;50.284;19.310;2022-10-22T05:26:40;64.25;;;35.65;;
17818;SDS011;9034;50.284;19.310;2022-10-22T05:27:47;52.85;;;29.48;;
17818;SDS011;9034;50.284;19.310;2022-10-22T05:28:50;39.92;;;26.52;;
17818;SDS011;9034;50.284;19.310;2022-10-22T05:29:54;42.28;;;26.60;;
17818;SDS011;9034;50.284;19.310;2022-10-22T05:30:57;45.85;;;31.20;;
17818;SDS011;9034;50.284;19.310;2022-10-22T05:32:02;55.22;;;32.10;;
17818;SDS011;9034;50.284;19.310;2022-10-22T05:33:06;65.10;;;34.33;;
17818;SDS011;9034;50.284;19.310;2022-10-22T05:34:09;50.22;;;26.83;;
17818;SDS011;9034;50.284;19.310;2022-10-22T05:35:12;53.33;;;29.40;;
17818;SDS011;9034;50.284;19.310;2022-10-22T05:36:17;175.73;;;42.50;;
17818;SDS011;9034;50.284;19.310;2022-10-22T05:37:22;41.85;;;26.95;;
17818;SDS011;9034;50.284;19.310;2022-10-22T05:38:25;40.15;;;26.38;;
17818;SDS011;9034;50.284;19.310;2022-10-22T05:39:28;45.35;;;29.35;;
17818;SDS011;9034;50.284;19.310;2022-10-22T05:40:32;48.55;;;28.40;;
17818;SDS011;9034;50.284;19.310;2022-10-22T05:41:35;56.35;;;30.20;;
17818;SDS011;9034;50.284;19.310;2022-10-22T05:42:39;58.90;;;30.08;;
17818;SDS011;9034;50.284;19.310;2022-10-22T05:43:42;64.10;;;29.98;;
17818;SDS011;9034;50.284;19.310;2022-10-22T05:44:46;71.72;;;32.70;;
17818;SDS011;9034;50.284;19.310;2022-10-22T05:45:49;67.47;;;32.20;;
17818;SDS011;9034;50.284;19.310;2022-10-22T05:46:53;52.33;;;28.63;;
17818;SDS011;9034;50.284;19.310;2022-10-22T05:47:57;56.15;;;31.73;;
17818;SDS011;9034;50.284;19.310;2022-10-22T05:49:01;50.17;;;28.95;;
17818;SDS011;9034;50.284;19.310;2022-10-22T05:50:06;53.00;;;30.40;;
17818;SDS011;9034;50.284;19.310;2022-10-22T05:51:10;49.65;;;30.92;;
17818;SDS011;9034;50.284;19.310;2022-10-22T05:52:14;50.40;;;31.88;;
17818;SDS011;9034;50.284;19.310;2022-10-22T05:53:18;63.58;;;33.67;;
17818;SDS011;9034;50.284;19.310;2022-10-22T05:54:22;49.67;;;34.38;;
17818;SDS011;9034;50.284;19.310;2022-10-22T05:55:25;52.58;;;35.55;;
17818;SDS011;9034;50.284;19.310;2022-10-22T05:56:29;54.13;;;32.55;;
17818;SDS011;9034;50.284;19.310;2022-10-22T05:57:33;54.22;;;34.30;;
17818;SDS011;9034;50.284;19.310;2022-10-22T05:58:37;66.72;;;33.42;;
17818;SDS011;9034;50.284;19.310;2022-10-22T05:59:40;79.45;;;31.83;;
17818;SDS011;9034;50.284;19.310;2022-10-22T06:00:43;42.58;;;27.95;;
17818;SDS011;9034;50.284;19.310;2022-10-22T06:01:46;45.60;;;29.50;;
17818;SDS011;9034;50.284;19.310;2022-10-22T06:02:50;44.42;;;29.25;;
17818;SDS011;9034;50.284;19.310;2022-10-22T06:03:53;44.88;;;29.95;;
17818;SDS011;9034;50.284;19.310;2022-10-22T06:04:58;38.72;;;27.15;;
17818;SDS011;9034;50.284;19.310;2022-10-22T06:06:02;39.42;;;28.88;;
17818;SDS011;9034;50.284;19.310;2022-10-22T06:07:07;38.53;;;28.42;;
17818;SDS011;9034;50.284;19.310;2022-10-22T06:08:12;32.63;;;25.60;;
17818;SDS011;9034;50.284;19.310;2022-10-22T06:09:22;39.22;;;27.38;;
17818;SDS011;9034;50.284;19.310;2022-10-22T06:10:27;42.72;;;31.98;;
17818;SDS011;9034;50.284;19.310;2022-10-22T06:11:30;40.67;;;30.40;;
17818;SDS011;9034;50.284;19.310;2022-10-22T06:12:36;33.90;;;27.65;;
17818;SDS011;9034;50.284;19.310;2022-10-22T06:13:39;39.97;;;28.50;;
17818;SDS011;9034;50.284;19.310;2022-10-22T06:14:43;37.20;;;28.08;;
17818;SDS011;9034;50.284;19.310;2022-10-22T06:15:45;36.40;;;27.05;;
17818;SDS011;9034;50.284;19.310;2022-10-22T06:16:49;33.53;;;25.52;;
17818;SDS011;9034;50.284;19.310;2022-10-22T06:17:52;30.65;;;22.83;;
17818;SDS011;9034;50.284;19.310;2022-10-22T06:18:57;29.70;;;23.15;;
17818;SDS011;9034;50.284;19.310;2022-10-22T06:20:00;28.90;;;22.98;;
17818;SDS011;9034;50.284;19.310;2022-10-22T06:21:10;30.17;;;24.65;;
17818;SDS011;9034;50.284;19.310;2022-10-22T06:22:15;31.27;;;23.63;;